Time;durP1;ratioP1;P1;durP2;ratioP2;P2;SDS_P1;SDS_P2;PMS_P1;PMS_P2;Temp;Humidity;BMP_temperature;BMP_pressure;BME280_temperature;BME280_humidity;BME280_pressure;Samples;Min_cycle;Max_cycle;Signal;HPM_P1;HPM_P2
2023/10/24 00:00:24;;;;;;;;;;;;;;;-144.99;100.00;52478.66;5083572;28;20392;-65
2023/10/24 00:02:50;;;;;;;;;;;;;;;-144.99;100.00;52464.41;5087411;28;19932;-64
2023/10/24 00:05:17;;;;;;;;;;;;;;;-144.99;100.00;52431.78;5087649;28;19970;-64
2023/10/24 00:07:45;;;;;;;;;;;;;;;-144.99;100.00;52429.75;5086369;28;19928;-71
2023/10/24 00:10:12;;;;;;;;;;;;;;;-144.99;100.00;52476.63;5091344;28;19966;-70
2023/10/24 00:12:38;;;;;;;;;;;;;;;-144.99;100.00;52492.94;5088814;28;19960;-69
2023/10/24 00:15:06;;;;;;;;;;;;;;;-144.99;100.00;52444.03;5098155;22;20010;-71
2023/10/24 00:17:32;;;;;;;;;;;;;;;-144.99;100.00;52448.09;5117628;27;19935;-71
2023/10/24 00:19:58;;;;;;;;;;;;;;;-144.99;100.00;52468.47;5122394;27;19923;-71
2023/10/24 00:22:25;;;;;;;;;;;;;;;-144.99;100.00;52431.78;5113876;27;19970;-72
2023/10/24 00:24:51;;;;;;;;;;;;;;;-144.99;100.00;52478.66;5108419;28;19934;-72
2023/10/24 00:27:18;;;;;;;;;;;;;;;-144.99;100.00;52462.34;5107275;27;20151;-72
2023/10/24 00:29:44;;;;;;;;;;;;;;;-144.99;100.00;52444.03;5116106;27;20021;-72
2023/10/24 00:32:12;;;;;;;;;;;;;;;-144.99;100.00;52435.88;5115577;27;19974;-72
2023/10/24 00:34:39;;;;;;;;;;;;;;;-144.99;100.00;52476.63;5110877;27;20376;-72
2023/10/24 00:37:05;;;;;;;;;;;;;;;-144.99;100.00;52464.41;5108105;27;20271;-72
2023/10/24 00:39:32;;;;;;;;;;;;;;;-144.99;100.00;52484.78;5118009;27;20038;-72
2023/10/24 00:41:58;;;;;;;;;;;;;;;-144.99;100.00;52476.63;5119873;27;20345;-72
2023/10/24 00:44:27;;;;;;;;;;;;;;;-144.99;100.00;52476.63;5107900;28;19982;-72
2023/10/24 00:46:54;;;;;;;;;;;;;;;-144.99;100.00;52444.03;5099458;27;19930;-72
2023/10/24 00:49:22;;;;;;;;;;;;;;;-144.99;100.00;52478.66;5126844;27;20121;-72
2023/10/24 00:51:49;;;;;;;;;;;;;;;-144.99;100.00;52468.47;5119938;27;19936;-72
2023/10/24 00:54:15;;;;;;;;;;;;;;;-144.99;100.00;52458.28;5111794;27;20026;-71
2023/10/24 00:56:44;;;;;;;;;;;;;;;-144.99;100.00;52460.31;5108008;28;19928;-72
2023/10/24 00:59:11;;;;;;;;;;;;;;;-144.99;100.00;52466.44;5120428;27;19924;-73
2023/10/24 01:01:37;;;;;;;;;;;;;;;-144.99;100.00;52444.03;5120423;27;19975;-72
2023/10/24 01:04:05;;;;;;;;;;;;;;;-144.99;100.00;52456.25;5116314;28;19924;-72
2023/10/24 01:06:33;;;;;;;;;;;;;;;-144.99;100.00;52419.56;5104990;27;19932;-68
2023/10/24 01:08:59;;;;;;;;;;;;;;;-144.99;100.00;52433.81;5118216;27;19962;-68
2023/10/24 01:11:26;;;;;;;;;;;;;;;-144.99;100.00;52480.72;5121235;27;20145;-67
2023/10/24 01:13:52;;;;;;;;;;;;;;;-144.99;100.00;52464.41;5117676;27;19971;-68
2023/10/24 01:16:20;;;;;;;;;;;;;;;-144.99;100.00;52470.50;5107029;27;19932;-69
2023/10/24 01:18:47;;;;;;;;;;;;;;;-144.99;100.00;52454.22;5109707;27;19931;-68
2023/10/24 01:21:13;;;;;;;;;;;;;;;-144.99;100.00;52458.28;5120366;27;19974;-67
2023/10/24 01:23:42;;;;;;;;;;;;;;;-144.99;100.00;52488.84;5084856;28;20007;-68
2023/10/24 01:26:11;;;;;;;;;;;;;;;-144.99;100.00;52452.16;5104399;28;20347;-68
2023/10/24 01:28:38;;;;;;;;;;;;;;;-144.99;100.00;52456.25;5113285;27;19923;-67
2023/10/24 01:31:04;;;;;;;;;;;;;;;-144.99;100.00;52431.78;5114364;27;19967;-67
2023/10/24 01:33:31;;;;;;;;;;;;;;;-144.99;100.00;52417.53;5110378;28;20342;-68
2023/10/24 01:35:57;;;;;;;;;;;;;;;-144.99;100.00;52452.16;5109616;28;19960;-67
2023/10/24 01:38:23;;;;;;;;;;;;;;;-144.99;100.00;52460.31;5106258;28;20260;-67
2023/10/24 01:40:51;;;;;;;;;;;;;;;-144.99;100.00;52452.16;5115169;27;19958;-67
2023/10/24 01:43:18;;;;;;;;;;;;;;;-144.99;100.00;52448.09;5106378;27;19924;-67
2023/10/24 01:45:44;;;;;;;;;;;;;;;-144.99;100.00;52452.16;5117965;27;19959;-68
2023/10/24 01:48:11;;;;;;;;;;;;;;;-144.99;100.00;52435.88;5112059;27;20019;-67
2023/10/24 01:50:37;;;;;;;;;;;;;;;-144.99;100.00;52395.09;5108656;28;19928;-69
2023/10/24 01:53:04;;;;;;;;;;;;;;;-144.99;100.00;52421.59;5116907;27;19927;-70
2023/10/24 01:55:30;;;;;;;;;;;;;;;-144.99;100.00;52415.47;5105941;27;19955;-69
2023/10/24 01:57:58;;;;;;;;;;;;;;;-144.99;100.00;52478.66;5117779;27;19923;-69
2023/10/24 02:00:24;;;;;;;;;;;;;;;-144.99;100.00;52448.09;5107590;27;20463;-72
2023/10/24 02:02:53;;;;;;;;;;;;;;;-144.99;100.00;52460.31;5117170;27;20349;-74
2023/10/24 02:05:20;;;;;;;;;;;;;;;-144.99;100.00;52411.41;5107907;28;20368;-74
2023/10/24 02:07:46;;;;;;;;;;;;;;;-144.99;100.00;52448.09;5105996;28;19962;-70
2023/10/24 02:10:13;;;;;;;;;;;;;;;-144.99;100.00;52431.78;5119620;27;19977;-71
2023/10/24 02:12:39;;;;;;;;;;;;;;;-144.99;100.00;52444.03;5118716;27;19959;-69
2023/10/24 02:15:08;;;;;;;;;;;;;;;-144.99;100.00;52407.31;5108036;27;19928;-71
2023/10/24 02:17:35;;;;;;;;;;;;;;;-144.99;100.00;52439.94;5108563;27;20467;-72
2023/10/24 02:20:02;;;;;;;;;;;;;;;-144.99;100.00;52423.63;5117728;27;19928;-73
2023/10/24 02:22:29;;;;;;;;;;;;;;;-144.99;100.00;52480.72;5107155;27;20019;-74
2023/10/24 02:24:56;;;;;;;;;;;;;;;-144.99;100.00;52460.31;5114016;27;19976;-72
2023/10/24 02:27:22;;;;;;;;;;;;;;;-144.99;100.00;52431.78;5110168;27;20543;-73
2023/10/24 02:29:48;;;;;;;;;;;;;;;-144.99;100.00;52444.03;5113420;27;20363;-73
2023/10/24 02:32:16;;;;;;;;;;;;;;;-144.99;100.00;52444.03;5112409;27;19971;-72
2023/10/24 02:34:43;;;;;;;;;;;;;;;-144.99;100.00;52486.81;5117963;27;20015;-68
2023/10/24 02:37:09;;;;;;;;;;;;;;;-144.99;100.00;52435.88;5115680;27;19998;-65
2023/10/24 02:39:36;;;;;;;;;;;;;;;-144.99;100.00;52431.78;5106454;27;19959;-67
2023/10/24 02:42:02;;;;;;;;;;;;;;;-144.99;100.00;52439.94;5114416;27;20001;-67
2023/10/24 02:44:29;;;;;;;;;;;;;;;-144.99;100.00;52431.78;5111515;28;20027;-68
2023/10/24 02:46:55;;;;;;;;;;;;;;;-144.99;100.00;52448.09;5122165;27;19973;-72
2023/10/24 02:49:23;;;;;;;;;;;;;;;-144.99;100.00;52403.25;5115755;27;19981;-72
2023/10/24 02:51:49;;;;;;;;;;;;;;;-144.99;100.00;52468.47;5115641;27;19924;-71
2023/10/24 02:54:16;;;;;;;;;;;;;;;-144.99;100.00;52427.72;5109429;28;19924;-72
2023/10/24 02:56:42;;;;;;;;;;;;;;;-144.99;100.00;52458.28;5109429;28;20076;-71
2023/10/24 02:59:09;;;;;;;;;;;;;;;-144.99;100.00;52472.56;5122265;28;20180;-71
2023/10/24 03:01:35;;;;;;;;;;;;;;;-144.99;100.00;52425.66;5105379;28;19997;-71
2023/10/24 03:04:02;;;;;;;;;;;;;;;-144.99;100.00;52464.41;5108951;28;19963;-71
2023/10/24 03:06:30;;;;;;;;;;;;;;;-144.99;100.00;52448.09;5110360;28;20292;-72
2023/10/24 03:08:56;;;;;;;;;;;;;;;-144.99;100.00;52462.34;5122317;28;19923;-72
2023/10/24 03:11:23;;;;;;;;;;;;;;;-144.99;100.00;52492.94;5116738;28;20045;-72
2023/10/24 03:13:49;;;;;;;;;;;;;;;-144.99;100.00;52435.88;5112653;28;20019;-71
2023/10/24 03:16:16;;;;;;;;;;;;;;;-144.99;100.00;52407.31;5100224;28;19966;-67
2023/10/24 03:18:42;;;;;;;;;;;;;;;-144.99;100.00;52435.88;5123027;28;19928;-69
2023/10/24 03:21:09;;;;;;;;;;;;;;;-144.99;100.00;52460.31;5115978;28;20137;-70
2023/10/24 03:23:37;;;;;;;;;;;;;;;-144.99;100.00;52415.47;5107783;28;19971;-69
2023/10/24 03:26:05;;;;;;;;;;;;;;;-144.99;100.00;52423.63;5108789;28;20011;-69
2023/10/24 03:28:31;;;;;;;;;;;;;;;-144.99;100.00;52427.72;5112514;28;20042;-71
2023/10/24 03:31:01;;;;;;;;;;;;;;;-144.99;100.00;52478.66;5117511;27;20339;-69
2023/10/24 03:33:27;;;;;;;;;;;;;;;-144.99;100.00;52395.09;5103808;27;19931;-70
2023/10/24 03:35:54;;;;;;;;;;;;;;;-144.99;100.00;52472.56;5084925;28;20003;-69
2023/10/24 03:38:20;;;;;;;;;;;;;;;-144.99;100.00;52444.03;5109482;28;19923;-69
2023/10/24 03:40:49;;;;;;;;;;;;;;;-144.99;100.00;52454.22;5113075;28;20011;-69
2023/10/24 03:43:16;;;;;;;;;;;;;;;-144.99;100.00;52429.75;5112253;27;19923;-70
2023/10/24 03:45:43;;;;;;;;;;;;;;;-144.99;100.00;52435.88;5118113;27;19962;-68
2023/10/24 03:48:10;;;;;;;;;;;;;;;-144.99;100.00;52464.41;5122821;27;20409;-66
2023/10/24 03:50:37;;;;;;;;;;;;;;;-144.99;100.00;52435.88;5122173;27;19934;-66
2023/10/24 03:53:04;;;;;;;;;;;;;;;-144.99;100.00;52444.03;5106812;28;19927;-65
2023/10/24 03:55:30;;;;;;;;;;;;;;;-144.99;100.00;52439.94;5111552;28;19924;-65
2023/10/24 03:57:58;;;;;;;;;;;;;;;-144.99;100.00;52391.03;5113615;28;19974;-66
2023/10/24 04:00:25;;;;;;;;;;;;;;;-144.99;100.00;52460.31;5122534;27;19935;-65
2023/10/24 04:02:51;;;;;;;;;;;;;;;-144.99;100.00;52444.03;5126117;27;19973;-69
2023/10/24 04:05:18;;;;;;;;;;;;;;;-144.99;100.00;52427.72;5100389;27;19951;-71
2023/10/24 04:07:44;;;;;;;;;;;;;;;-144.99;100.00;52464.41;5114759;27;19973;-71
2023/10/24 04:10:12;;;;;;;;;;;;;;;-144.99;100.00;52454.22;5086091;28;19932;-71
2023/10/24 04:12:39;;;;;;;;;;;;;;;-144.99;100.00;52444.03;5120670;27;20539;-71
2023/10/24 04:15:07;;;;;;;;;;;;;;;-144.99;100.00;52419.56;5111380;27;20026;-67
2023/10/24 04:17:34;;;;;;;;;;;;;;;-144.99;100.00;52454.22;5115753;27;19934;-69
2023/10/24 04:20:00;;;;;;;;;;;;;;;-144.99;100.00;52435.88;5119050;27;20408;-68
2023/10/24 04:22:27;;;;;;;;;;;;;;;-144.99;100.00;52452.16;5116388;27;20003;-68
2023/10/24 04:24:54;;;;;;;;;;;;;;;-144.99;100.00;52456.25;5103867;28;19936;-68
2023/10/24 04:27:20;;;;;;;;;;;;;;;-144.99;100.00;52415.47;5117071;27;19974;-70
2023/10/24 04:29:47;;;;;;;;;;;;;;;-144.99;100.00;52435.88;5118523;27;20019;-70
2023/10/24 04:32:15;;;;;;;;;;;;;;;-144.99;100.00;52415.47;5117736;27;19923;-69
2023/10/24 04:34:41;;;;;;;;;;;;;;;-144.99;100.00;52439.94;5102170;27;20341;-70
2023/10/24 04:37:08;;;;;;;;;;;;;;;-144.99;100.00;52478.66;5108592;27;20216;-69
2023/10/24 04:39:34;;;;;;;;;;;;;;;-144.99;100.00;52468.47;5110504;27;19962;-70
2023/10/24 04:42:00;;;;;;;;;;;;;;;-144.99;100.00;52419.56;5117094;27;19962;-70
2023/10/24 04:44:27;;;;;;;;;;;;;;;-144.99;100.00;52403.25;5105530;27;20173;-70
2023/10/24 04:46:53;;;;;;;;;;;;;;;-144.99;100.00;52415.47;5114790;27;20457;-69
2023/10/24 04:49:21;;;;;;;;;;;;;;;-144.99;100.00;52419.56;5126567;27;19923;-70
2023/10/24 04:51:48;;;;;;;;;;;;;;;-144.99;100.00;52431.78;5109799;28;20084;-69
2023/10/24 04:54:15;;;;;;;;;;;;;;;-144.99;100.00;52431.78;5115723;27;20123;-69
2023/10/24 04:56:41;;;;;;;;;;;;;;;-144.99;100.00;52411.41;5109889;27;20007;-70
2023/10/24 04:59:08;;;;;;;;;;;;;;;-144.99;100.00;52415.47;5118220;27;20015;-69
2023/10/24 05:01:38;;;;;;;;;;;;;;;-144.99;100.00;52431.78;5110538;28;20023;-71
2023/10/24 05:04:05;;;;;;;;;;;;;;;-144.99;100.00;52468.47;5109709;27;19951;-71
2023/10/24 05:06:33;;;;;;;;;;;;;;;-144.99;100.00;52464.41;5106014;27;20035;-71
2023/10/24 05:09:00;;;;;;;;;;;;;;;-144.99;100.00;52427.72;5111830;27;20311;-69
2023/10/24 05:11:26;;;;;;;;;;;;;;;-144.99;100.00;52456.25;5109394;27;20373;-68
2023/10/24 05:13:53;;;;;;;;;;;;;;;-144.99;100.00;52439.94;5107243;28;19924;-63
2023/10/24 05:16:19;;;;;;;;;;;;;;;-144.99;100.00;52439.94;5103445;28;19967;-71
2023/10/24 05:18:46;;;;;;;;;;;;;;;-144.99;100.00;52427.72;5106954;28;19974;-70
2023/10/24 05:21:12;;;;;;;;;;;;;;;-144.99;100.00;52435.88;5112064;27;20026;-71
2023/10/24 05:23:40;;;;;;;;;;;;;;;-144.99;100.00;52444.03;5115266;27;20394;-69
2023/10/24 05:26:06;;;;;;;;;;;;;;;-144.99;100.00;52439.94;5118736;27;19967;-70
2023/10/24 05:28:34;;;;;;;;;;;;;;;-144.99;100.00;52435.88;5102967;27;20354;-71
2023/10/24 05:31:07;;;;;;;;;;;;;;;-144.99;100.00;52444.03;4933844;27;10000304;-75
2023/10/24 05:33:33;;;;;;;;;;;;;;;-144.99;100.00;52415.47;5127436;27;20448;-72
2023/10/24 05:36:00;;;;;;;;;;;;;;;-144.99;100.00;52452.16;5107309;28;20410;-72
2023/10/24 05:38:27;;;;;;;;;;;;;;;-144.99;100.00;52452.16;5116379;27;19927;-72
2023/10/24 05:40:55;;;;;;;;;;;;;;;-144.99;100.00;52464.41;5108403;27;20353;-73
2023/10/24 05:43:21;;;;;;;;;;;;;;;-144.99;100.00;52407.31;5107407;27;19931;-72
2023/10/24 05:45:48;;;;;;;;;;;;;;;-144.99;100.00;52452.16;5102490;27;20455;-72
2023/10/24 05:48:14;;;;;;;;;;;;;;;-144.99;100.00;52415.47;5103075;27;19949;-72
2023/10/24 05:50:41;;;;;;;;;;;;;;;-144.99;100.00;52444.03;5094757;28;19979;-74
2023/10/24 05:53:07;;;;;;;;;;;;;;;-144.99;100.00;52448.09;5103157;27;20387;-72
2023/10/24 05:55:34;;;;;;;;;;;;;;;-144.99;100.00;52452.16;5106586;28;19935;-72
2023/10/24 05:58:01;;;;;;;;;;;;;;;-144.99;100.00;52488.84;5107854;28;20010;-72
2023/10/24 06:00:28;;;;;;;;;;;;;;;-144.99;100.00;52460.31;5104746;28;19934;-73
2023/10/24 06:02:55;;;;;;;;;;;;;;;-144.99;100.00;52439.94;5108348;27;19955;-71
2023/10/24 06:05:21;;;;;;;;;;;;;;;-144.99;100.00;52429.75;5106146;27;19974;-72
2023/10/24 06:07:48;;;;;;;;;;;;;;;-144.99;100.00;52435.88;5110438;27;19963;-72
2023/10/24 06:10:14;;;;;;;;;;;;;;;-144.99;100.00;52439.94;5119486;27;19990;-72
2023/10/24 06:12:41;;;;;;;;;;;;;;;-144.99;100.00;52460.31;5105958;27;19928;-72
2023/10/24 06:15:10;;;;;;;;;;;;;;;-144.99;100.00;52433.81;5112329;27;19931;-73
2023/10/24 06:17:36;;;;;;;;;;;;;;;-144.99;100.00;52448.09;5116953;22;20411;-70
2023/10/24 06:20:03;;;;;;;;;;;;;;;-144.99;100.00;52448.09;5102473;28;19932;-70
2023/10/24 06:22:29;;;;;;;;;;;;;;;-144.99;100.00;52466.44;5105936;28;19932;-71
2023/10/24 06:24:57;;;;;;;;;;;;;;;-144.99;100.00;52421.59;5109933;28;20006;-70
2023/10/24 06:27:24;;;;;;;;;;;;;;;-144.99;100.00;52452.16;5113223;28;19989;-71
2023/10/24 06:29:50;;;;;;;;;;;;;;;-144.99;100.00;52476.63;5121218;28;20004;-70
2023/10/24 06:32:18;;;;;;;;;;;;;;;-144.99;100.00;52444.03;5119272;27;19929;-71
2023/10/24 06:34:45;;;;;;;;;;;;;;;-144.99;100.00;52419.56;5116195;28;20292;-71
2023/10/24 06:37:11;;;;;;;;;;;;;;;-144.99;100.00;52448.09;5100719;28;19935;-71
2023/10/24 06:39:38;;;;;;;;;;;;;;;-144.99;100.00;52446.06;5113227;28;20383;-70
2023/10/24 06:42:05;;;;;;;;;;;;;;;-144.99;100.00;52435.88;5115571;28;19969;-70
2023/10/24 06:44:31;;;;;;;;;;;;;;;-144.99;100.00;52441.97;5114806;28;19928;-72
2023/10/24 06:46:58;;;;;;;;;;;;;;;-144.99;100.00;52456.25;5114510;28;19928;-72
2023/10/24 06:49:26;;;;;;;;;;;;;;;-144.99;100.00;52439.94;5100621;28;19970;-69
2023/10/24 06:51:52;;;;;;;;;;;;;;;-144.99;100.00;52452.16;5114500;28;20461;-69
2023/10/24 06:54:19;;;;;;;;;;;;;;;-144.99;100.00;52456.25;5113977;28;19930;-69
2023/10/24 06:56:45;;;;;;;;;;;;;;;-144.99;100.00;52448.09;5113272;28;20741;-70
2023/10/24 06:59:12;;;;;;;;;;;;;;;-144.99;100.00;52419.56;5116019;28;19931;-70
2023/10/24 07:01:38;;;;;;;;;;;;;;;-144.99;100.00;52482.75;5109146;28;19946;-70
2023/10/24 07:04:05;;;;;;;;;;;;;;;-144.99;100.00;52419.56;5093409;28;20175;-71
2023/10/24 07:06:33;;;;;;;;;;;;;;;-144.99;100.00;52446.06;5116128;28;19924;-70
2023/10/24 07:09:00;;;;;;;;;;;;;;;-144.99;100.00;52468.47;5115251;28;20392;-71
2023/10/24 07:11:27;;;;;;;;;;;;;;;-144.99;100.00;52435.88;5117867;28;20185;-71
2023/10/24 07:13:53;;;;;;;;;;;;;;;-144.99;100.00;52460.31;5113990;28;20299;-70
2023/10/24 07:16:20;;;;;;;;;;;;;;;-144.99;100.00;52480.72;5113432;28;19927;-70
2023/10/24 07:18:46;;;;;;;;;;;;;;;-144.99;100.00;52433.81;5105004;27;20019;-70
2023/10/24 07:21:15;;;;;;;;;;;;;;;-144.99;100.00;52388.97;5111737;28;19931;-69
2023/10/24 07:23:43;;;;;;;;;;;;;;;-144.99;100.00;52429.75;5104891;28;19970;-71
2023/10/24 07:26:10;;;;;;;;;;;;;;;-144.99;100.00;52441.97;5111682;28;20768;-70
2023/10/24 07:28:37;;;;;;;;;;;;;;;-144.99;100.00;52468.47;5101803;28;19934;-70
2023/10/24 07:31:03;;;;;;;;;;;;;;;-144.99;100.00;52423.63;5109287;28;20292;-69
2023/10/24 07:33:30;;;;;;;;;;;;;;;-144.99;100.00;52464.41;5101459;28;19935;-70
2023/10/24 07:36:03;;;;;;;;;;;;;;;-144.99;100.00;52448.09;5107758;28;20026;-71
2023/10/24 07:38:29;;;;;;;;;;;;;;;-144.99;100.00;52415.47;5111755;28;20015;-70
2023/10/24 07:40:57;;;;;;;;;;;;;;;-144.99;100.00;52464.41;5104803;28;20178;-70
2023/10/24 07:43:24;;;;;;;;;;;;;;;-144.99;100.00;52435.88;5107786;28;19971;-71
2023/10/24 07:45:50;;;;;;;;;;;;;;;-144.99;100.00;52391.03;5110490;28;19928;-70
2023/10/24 07:48:17;;;;;;;;;;;;;;;-144.99;100.00;52399.19;5103216;28;19959;-70
2023/10/24 07:50:49;;;;;;;;;;;;;;;-144.99;100.00;52431.78;5098606;28;19927;-70
2023/10/24 07:53:15;;;;;;;;;;;;;;;-144.99;100.00;52444.03;5104753;28;19956;-70
2023/10/24 07:55:42;;;;;;;;;;;;;;;-144.99;100.00;52441.97;5102906;28;20573;-69
2023/10/24 07:58:10;;;;;;;;;;;;;;;-144.99;100.00;52452.16;5101275;28;20011;-71
2023/10/24 08:00:36;;;;;;;;;;;;;;;-144.99;100.00;52427.72;5100179;28;20380;-70
2023/10/24 08:03:03;;;;;;;;;;;;;;;-144.99;100.00;52444.03;5098867;28;20416;-70
2023/10/24 08:05:29;;;;;;;;;;;;;;;-144.99;100.00;52444.03;5104327;28;20000;-70
2023/10/24 08:07:56;;;;;;;;;;;;;;;-144.99;100.00;52474.59;5101586;28;20293;-70
2023/10/24 08:10:22;;;;;;;;;;;;;;;-144.99;100.00;52444.03;5097932;28;20291;-68
2023/10/24 08:12:49;;;;;;;;;;;;;;;-144.99;100.00;52456.25;5102657;28;19965;-68
2023/10/24 08:15:17;;;;;;;;;;;;;;;-144.99;100.00;52450.13;5107612;28;19953;-68
2023/10/24 08:17:43;;;;;;;;;;;;;;;-144.99;100.00;52415.47;5107565;27;19932;-68
2023/10/24 08:20:10;;;;;;;;;;;;;;;-144.99;100.00;52435.88;5099874;27;19977;-68
2023/10/24 08:22:37;;;;;;;;;;;;;;;-144.99;100.00;52386.94;5106793;28;20016;-68
2023/10/24 08:25:04;;;;;;;;;;;;;;;-144.99;100.00;52448.09;5110838;28;20412;-68
2023/10/24 08:27:30;;;;;;;;;;;;;;;-144.99;100.00;52466.44;5101843;28;19982;-68
2023/10/24 08:29:57;;;;;;;;;;;;;;;-144.99;100.00;52484.78;5094689;28;19927;-68
2023/10/24 08:32:24;;;;;;;;;;;;;;;-144.99;100.00;52444.03;5108077;28;19927;-68
2023/10/24 08:34:51;;;;;;;;;;;;;;;-144.99;100.00;52444.03;5111487;28;20439;-67
2023/10/24 08:37:17;;;;;;;;;;;;;;;-144.99;100.00;52458.28;5104779;28;19928;-68
2023/10/24 08:39:45;;;;;;;;;;;;;;;-144.99;100.00;52419.56;5108369;28;19971;-68
2023/10/24 08:42:12;;;;;;;;;;;;;;;-144.99;100.00;52444.03;5106382;28;19924;-70
2023/10/24 08:44:39;;;;;;;;;;;;;;;-144.99;100.00;52423.63;5110040;28;19936;-68
2023/10/24 08:47:06;;;;;;;;;;;;;;;-144.99;100.00;52456.25;5107589;28;20305;-68
2023/10/24 08:49:37;;;;;;;;;;;;;;;-144.99;100.00;52458.28;5108117;28;20350;-68
2023/10/24 08:52:04;;;;;;;;;;;;;;;-144.99;100.00;52403.25;5117856;28;19976;-68
2023/10/24 08:54:31;;;;;;;;;;;;;;;-144.99;100.00;52446.06;5108780;28;19931;-68
2023/10/24 08:56:57;;;;;;;;;;;;;;;-144.99;100.00;52444.03;5110464;28;20380;-68
2023/10/24 08:59:26;;;;;;;;;;;;;;;-144.99;100.00;52423.63;5105548;28;19924;-68
2023/10/24 09:01:52;;;;;;;;;;;;;;;-144.99;100.00;52431.78;5097302;28;19924;-67
2023/10/24 09:04:19;;;;;;;;;;;;;;;-144.99;100.00;52419.56;5103800;28;20221;-68
2023/10/24 09:06:47;;;;;;;;;;;;;;;-144.99;100.00;52427.72;5102184;28;19975;-68
2023/10/24 09:09:14;;;;;;;;;;;;;;;-144.99;100.00;52437.91;5101878;28;19928;-68
2023/10/24 09:11:53;;;;;;;;;;;;;;;-144.99;100.00;52456.25;5105283;28;19924;-68
2023/10/24 09:14:20;;;;;;;;;;;;;;;-144.99;100.00;52454.22;5102205;28;19960;-68
2023/10/24 09:16:53;;;;;;;;;;;;;;;-144.99;100.00;52439.94;5099284;28;19989;-68
2023/10/24 09:19:19;;;;;;;;;;;;;;;-144.99;100.00;52460.31;5106734;27;19932;-68
2023/10/24 09:21:47;;;;;;;;;;;;;;;-144.99;100.00;52407.31;5107783;28;19927;-67
2023/10/24 09:24:15;;;;;;;;;;;;;;;-144.99;100.00;52417.53;5092424;28;20332;-68
2023/10/24 09:26:49;;;;;;;;;;;;;;;-144.99;100.00;52421.59;5099240;28;19924;-68
2023/10/24 09:29:17;;;;;;;;;;;;;;;-144.99;100.00;52448.09;5108938;28;20425;-68
2023/10/24 09:31:45;;;;;;;;;;;;;;;-144.99;100.00;52488.84;5095869;28;19928;-68
2023/10/24 09:34:11;;;;;;;;;;;;;;;-144.99;100.00;52452.16;5106468;28;19980;-68
2023/10/24 09:36:38;;;;;;;;;;;;;;;-144.99;100.00;52419.56;5109602;28;19963;-68
2023/10/24 09:39:06;;;;;;;;;;;;;;;-144.99;100.00;52435.88;5108126;28;19924;-68
2023/10/24 09:41:32;;;;;;;;;;;;;;;-144.99;100.00;52435.88;5096704;28;20022;-68
2023/10/24 09:44:01;;;;;;;;;;;;;;;-144.99;100.00;52448.09;5095053;28;19932;-68
2023/10/24 09:46:28;;;;;;;;;;;;;;;-144.99;100.00;52431.78;5105702;28;20420;-69
2023/10/24 09:48:56;;;;;;;;;;;;;;;-144.99;100.00;52421.59;5103618;28;20240;-68
2023/10/24 09:51:23;;;;;;;;;;;;;;;-144.99;100.00;52407.31;5106150;28;19967;-68
2023/10/24 09:53:49;;;;;;;;;;;;;;;-144.99;100.00;52439.94;5103408;28;19928;-68
2023/10/24 09:56:18;;;;;;;;;;;;;;;-144.99;100.00;52427.72;5113896;28;19982;-69
2023/10/24 09:58:45;;;;;;;;;;;;;;;-144.99;100.00;52448.09;5104783;28;19928;-67
2023/10/24 10:01:12;;;;;;;;;;;;;;;-144.99;100.00;52419.56;5096611;28;19979;-68
2023/10/24 10:03:39;;;;;;;;;;;;;;;-144.99;100.00;52423.63;5101035;28;19964;-68
2023/10/24 10:06:06;;;;;;;;;;;;;;;-144.99;100.00;52427.72;5104034;28;19967;-68
2023/10/24 10:08:36;;;;;;;;;;;;;;;-144.99;100.00;52407.31;5107552;28;19963;-68
2023/10/24 10:11:03;;;;;;;;;;;;;;;-144.99;100.00;52419.56;5102137;28;20001;-68
2023/10/24 10:13:34;;;;;;;;;;;;;;;-144.99;100.00;52395.09;5099321;28;20363;-68
2023/10/24 10:16:05;;;;;;;;;;;;;;;-144.99;100.00;52425.66;5098897;28;19927;-68
2023/10/24 10:18:48;;;;;;;;;;;;;;;-144.99;100.00;52431.78;5103846;27;20022;-70
2023/10/24 10:21:23;;;;;;;;;;;;;;;-144.99;100.00;52382.88;5100818;28;19963;-68
2023/10/24 10:24:07;;;;;;;;;;;;;;;-144.99;100.00;52419.56;5094153;28;20446;-69
2023/10/24 10:26:45;;;;;;;;;;;;;;;-144.99;100.00;52439.94;5105723;28;20416;-68
2023/10/24 10:29:17;;;;;;;;;;;;;;;-144.99;100.00;52423.63;5102533;28;19974;-69
2023/10/24 10:32:02;;;;;;;;;;;;;;;-144.99;100.00;52431.78;5105316;28;20379;-69
2023/10/24 10:34:35;;;;;;;;;;;;;;;-144.99;100.00;52415.47;5105334;28;19953;-69
2023/10/24 10:37:01;;;;;;;;;;;;;;;-144.99;100.00;52368.59;5107976;28;20018;-69
2023/10/24 10:39:28;;;;;;;;;;;;;;;-144.99;100.00;52427.72;5108246;28;19956;-70
2023/10/24 10:41:55;;;;;;;;;;;;;;;-144.99;100.00;52391.03;5106255;28;20285;-70
2023/10/24 10:44:40;;;;;;;;;;;;;;;-144.99;100.00;52415.47;5107500;28;20407;-70
2023/10/24 10:47:07;;;;;;;;;;;;;;;-144.99;100.00;52419.56;5097122;28;19977;-71
2023/10/24 10:49:42;;;;;;;;;;;;;;;-144.99;100.00;52444.03;5105104;28;20287;-70
2023/10/24 10:52:12;;;;;;;;;;;;;;;-144.99;100.00;52435.88;5101238;28;20019;-70
2023/10/24 10:54:45;;;;;;;;;;;;;;;-144.99;100.00;52415.47;5103248;28;20428;-70
2023/10/24 10:57:15;;;;;;;;;;;;;;;-144.99;100.00;52433.81;5103373;28;19927;-69
2023/10/24 10:59:46;;;;;;;;;;;;;;;-144.99;100.00;52444.03;5097375;28;19964;-70
2023/10/24 11:02:23;;;;;;;;;;;;;;;-144.99;100.00;52403.25;5098284;28;19963;-69
2023/10/24 11:04:49;;;;;;;;;;;;;;;-144.99;100.00;52391.03;5106253;28;20039;-69
2023/10/24 11:07:16;;;;;;;;;;;;;;;-144.99;100.00;52427.72;5094368;28;20427;-70
2023/10/24 11:09:42;;;;;;;;;;;;;;;-144.99;100.00;52448.09;5103849;28;20400;-72
2023/10/24 11:12:25;;;;;;;;;;;;;;;-144.99;100.00;52435.88;5108913;28;19934;-69
2023/10/24 11:15:19;;;;;;;;;;;;;;;-144.99;100.00;52444.03;5102971;28;20026;-71
2023/10/24 11:17:47;;;;;;;;;;;;;;;-144.99;100.00;52421.59;5103819;28;19931;-69
2023/10/24 11:20:13;;;;;;;;;;;;;;;-144.99;100.00;52411.41;5104152;28;20423;-70
2023/10/24 11:22:40;;;;;;;;;;;;;;;-144.99;100.00;52452.16;5101893;28;19932;-70
2023/10/24 11:25:08;;;;;;;;;;;;;;;-144.99;100.00;52448.09;5107295;28;19977;-69
2023/10/24 11:27:35;;;;;;;;;;;;;;;-144.99;100.00;52456.25;5108213;28;20269;-69
2023/10/24 11:30:02;;;;;;;;;;;;;;;-144.99;100.00;52437.91;5108414;28;19989;-69
2023/10/24 11:32:28;;;;;;;;;;;;;;;-144.99;100.00;52452.16;5097056;28;20032;-70
2023/10/24 11:34:56;;;;;;;;;;;;;;;-144.99;100.00;52460.31;5097651;28;19930;-70
2023/10/24 11:37:23;;;;;;;;;;;;;;;-144.99;100.00;52395.09;5101135;28;19955;-70
2023/10/24 11:39:49;;;;;;;;;;;;;;;-144.99;100.00;52448.09;5108516;28;20766;-69
2023/10/24 11:42:16;;;;;;;;;;;;;;;-144.99;100.00;52435.88;5102186;28;20445;-69
2023/10/24 11:44:43;;;;;;;;;;;;;;;-144.99;100.00;52444.03;5099574;28;19938;-70
2023/10/24 11:47:15;;;;;;;;;;;;;;;-144.99;100.00;52433.81;5093918;28;20356;-69
2023/10/24 11:49:41;;;;;;;;;;;;;;;-144.99;100.00;52403.25;5101588;28;19928;-69
2023/10/24 11:52:09;;;;;;;;;;;;;;;-144.99;100.00;52431.78;5105136;28;19947;-69
2023/10/24 11:54:37;;;;;;;;;;;;;;;-144.99;100.00;52423.63;5113706;28;19923;-69
2023/10/24 11:57:03;;;;;;;;;;;;;;;-144.99;100.00;52480.72;5111505;28;19931;-68
2023/10/24 11:59:32;;;;;;;;;;;;;;;-144.99;100.00;52362.50;5101796;28;20008;-69
2023/10/24 12:01:59;;;;;;;;;;;;;;;-144.99;100.00;52413.44;5110032;28;19931;-68
2023/10/24 12:04:26;;;;;;;;;;;;;;;-144.99;100.00;52448.09;5110739;28;19928;-68
2023/10/24 12:07:01;;;;;;;;;;;;;;;-144.99;100.00;52435.88;5101111;28;20396;-68
2023/10/24 12:09:32;;;;;;;;;;;;;;;-144.99;100.00;52399.19;5101506;28;19924;-68
2023/10/24 12:12:00;;;;;;;;;;;;;;;-144.99;100.00;52450.13;5117507;28;20281;-68
2023/10/24 12:14:27;;;;;;;;;;;;;;;-144.99;100.00;52431.78;5111062;28;20010;-67
2023/10/24 12:16:53;;;;;;;;;;;;;;;-144.99;100.00;52427.72;5109473;28;20315;-68
2023/10/24 12:19:20;;;;;;;;;;;;;;;-144.99;100.00;52397.13;5102062;28;19928;-68